createdAt,value
2018-09-09T00:00:26.981Z,17.18
2018-09-09T00:02:55.402Z,17.16
2018-09-09T00:05:23.839Z,17.20
2018-09-09T00:07:52.235Z,17.21
2018-09-09T00:10:20.630Z,17.18
2018-09-09T00:12:49.175Z,17.09
2018-09-09T00:15:17.555Z,17.06
2018-09-09T00:17:45.911Z,17.06
2018-09-09T00:20:14.323Z,17.03
2018-09-09T00:22:42.683Z,17.01
2018-09-09T00:25:11.170Z,17.01
2018-09-09T00:27:39.585Z,16.99
2018-09-09T00:30:08.255Z,16.99
2018-09-09T00:32:36.811Z,16.98
2018-09-09T00:35:05.191Z,16.95
2018-09-09T00:37:33.535Z,16.92
2018-09-09T00:40:02.144Z,16.87
2018-09-09T00:42:30.459Z,16.83
2018-09-09T00:44:58.829Z,16.85
2018-09-09T00:47:27.234Z,16.84
2018-09-09T00:51:00.528Z,16.82
2018-09-09T00:53:34.251Z,16.72
2018-09-09T00:56:02.691Z,16.70
2018-09-09T00:58:31.015Z,16.71
2018-09-09T01:01:04.744Z,16.67
2018-09-09T01:03:33.067Z,16.58
2018-09-09T01:06:01.524Z,16.61
2018-09-09T01:08:29.936Z,16.63
2018-09-09T01:10:58.259Z,16.63
2018-09-09T01:13:26.651Z,16.61
2018-09-09T01:15:55.090Z,16.60
2018-09-09T01:18:23.512Z,16.54
2018-09-09T01:20:51.856Z,16.44
2018-09-09T01:23:20.278Z,16.39
2018-09-09T01:25:48.587Z,16.35
2018-09-09T01:28:16.943Z,16.38
2018-09-09T01:30:45.483Z,16.44
2018-09-09T01:33:13.910Z,16.52
2018-09-09T01:35:42.351Z,16.58
2018-09-09T01:38:10.731Z,16.52
2018-09-09T01:40:39.055Z,16.51
2018-09-09T01:43:07.659Z,16.45
2018-09-09T01:45:36.115Z,16.39
2018-09-09T01:48:04.726Z,16.36
2018-09-09T01:50:33.141Z,16.37
2018-09-09T01:53:01.929Z,16.32
2018-09-09T01:55:30.294Z,16.28
2018-09-09T01:57:58.617Z,16.26
2018-09-09T02:00:26.983Z,16.14
2018-09-09T02:02:55.340Z,16.06
2018-09-09T02:05:23.662Z,15.99
2018-09-09T02:07:52.120Z,15.95
2018-09-09T02:10:20.468Z,15.94
2018-09-09T02:12:48.791Z,15.91
2018-09-09T02:15:17.281Z,15.81
2018-09-09T02:17:45.707Z,15.67
2018-09-09T02:20:14.023Z,15.62
2018-09-09T02:22:42.409Z,15.72
2018-09-09T02:25:10.847Z,15.79
2018-09-09T02:27:39.191Z,15.82
2018-09-09T02:30:07.799Z,15.80
2018-09-09T02:32:36.396Z,15.79
2018-09-09T02:35:05.604Z,15.80
2018-09-09T02:37:33.993Z,15.77
2018-09-09T02:40:02.427Z,15.80
2018-09-09T02:42:30.863Z,15.83
2018-09-09T02:44:59.260Z,15.70
2018-09-09T02:47:27.691Z,15.59
2018-09-09T02:49:56.016Z,15.55
2018-09-09T02:52:24.635Z,15.43
2018-09-09T02:54:52.963Z,15.42
2018-09-09T02:57:21.275Z,15.47
2018-09-09T02:59:49.839Z,15.46
2018-09-09T03:02:18.156Z,15.51
2018-09-09T03:04:46.544Z,15.56
2018-09-09T03:07:15.113Z,15.56
2018-09-09T03:09:43.496Z,15.55
2018-09-09T03:12:11.860Z,15.55
2018-09-09T03:14:40.235Z,15.42
2018-09-09T03:17:08.625Z,15.39
2018-09-09T03:19:36.949Z,15.47
2018-09-09T03:22:05.320Z,15.53
2018-09-09T03:24:33.640Z,15.53
2018-09-09T03:27:01.966Z,15.52
2018-09-09T03:29:30.337Z,15.44
2018-09-09T03:31:58.712Z,15.38
2018-09-09T03:34:27.297Z,15.34
2018-09-09T03:36:55.715Z,15.38
2018-09-09T03:39:24.217Z,15.27
2018-09-09T03:41:52.631Z,15.21
2018-09-09T03:44:21.047Z,15.22
2018-09-09T03:46:49.381Z,15.20
2018-09-09T03:49:17.846Z,15.24
2018-09-09T03:51:46.281Z,15.22
2018-09-09T03:54:14.619Z,15.14
2018-09-09T03:56:42.996Z,15.11
2018-09-09T03:59:11.575Z,15.08
2018-09-09T04:01:39.891Z,15.09
2018-09-09T04:04:08.847Z,15.10
2018-09-09T04:06:37.534Z,15.11
2018-09-09T04:09:07.479Z,15.11
2018-09-09T04:11:35.829Z,14.99
2018-09-09T04:14:04.248Z,15.01
2018-09-09T04:16:32.567Z,14.97
2018-09-09T04:19:00.999Z,14.91
2018-09-09T04:21:29.542Z,14.89
2018-09-09T04:23:57.879Z,14.88
2018-09-09T04:26:26.305Z,14.95
2018-09-09T04:28:54.722Z,15.02
2018-09-09T04:31:23.152Z,15.01
2018-09-09T04:33:51.631Z,15.00
2018-09-09T04:36:20.152Z,14.94
2018-09-09T04:38:48.611Z,14.88
2018-09-09T04:41:16.952Z,14.89
2018-09-09T04:43:45.406Z,14.86
2018-09-09T04:46:13.783Z,14.80
2018-09-09T04:48:42.128Z,14.77
2018-09-09T04:51:10.503Z,14.78
2018-09-09T04:53:38.816Z,14.73
2018-09-09T04:56:07.376Z,14.72
2018-09-09T04:58:35.751Z,14.72
2018-09-09T05:01:04.115Z,14.80
2018-09-09T05:03:32.435Z,14.83
2018-09-09T05:06:01.084Z,14.89
2018-09-09T05:08:29.467Z,14.91
2018-09-09T05:10:57.816Z,14.93
2018-09-09T05:13:26.179Z,15.00
2018-09-09T05:15:54.591Z,14.98
2018-09-09T05:18:22.973Z,14.99
2018-09-09T05:20:51.391Z,15.00
2018-09-09T05:23:19.735Z,14.99
2018-09-09T05:25:48.107Z,14.92
2018-09-09T05:28:16.683Z,14.87
2018-09-09T05:30:45.081Z,14.91
2018-09-09T05:33:13.408Z,15.01
2018-09-09T05:35:41.809Z,15.04
2018-09-09T05:38:10.454Z,15.07
2018-09-09T05:40:38.903Z,15.10
2018-09-09T05:43:07.470Z,15.14
2018-09-09T05:45:35.852Z,15.14
2018-09-09T05:48:04.207Z,15.22
2018-09-09T05:50:33.573Z,15.26
2018-09-09T05:53:02.135Z,15.30
2018-09-09T05:55:30.503Z,15.34
2018-09-09T05:57:58.903Z,15.45
2018-09-09T06:00:27.235Z,15.53
2018-09-09T06:02:55.657Z,15.60
2018-09-09T06:05:24.047Z,15.61
2018-09-09T06:07:52.379Z,15.69
2018-09-09T06:10:20.722Z,15.77
2018-09-09T06:12:49.176Z,15.80
2018-09-09T06:15:17.611Z,15.88
2018-09-09T06:17:46.004Z,15.97
2018-09-09T06:20:14.507Z,16.05
2018-09-09T06:22:42.993Z,16.13
2018-09-09T06:25:11.311Z,16.19
2018-09-09T06:27:39.811Z,16.18
2018-09-09T06:30:08.211Z,16.20
2018-09-09T06:32:36.641Z,16.24
2018-09-09T06:35:05.296Z,16.30
2018-09-09T06:37:33.851Z,16.36
2018-09-09T06:40:02.333Z,16.44
2018-09-09T06:42:30.769Z,16.48
2018-09-09T06:44:59.105Z,16.53
2018-09-09T06:47:27.459Z,16.60
2018-09-09T06:49:55.977Z,16.67
2018-09-09T06:52:24.485Z,16.69
2018-09-09T06:54:52.964Z,16.70
2018-09-09T06:57:21.323Z,16.76
2018-09-09T06:59:49.668Z,16.83
2018-09-09T07:02:18.179Z,16.90
2018-09-09T07:04:46.513Z,16.98
2018-09-09T07:07:14.852Z,17.03
2018-09-09T07:09:43.191Z,17.08
2018-09-09T07:12:11.651Z,17.13
2018-09-09T07:14:39.996Z,17.22
2018-09-09T07:17:08.624Z,17.29
2018-09-09T07:19:37.199Z,17.34
2018-09-09T07:22:05.651Z,17.39
2018-09-09T07:24:34.165Z,17.49
2018-09-09T07:27:02.677Z,17.59
2018-09-09T07:29:31.091Z,17.66
2018-09-09T07:31:59.435Z,17.70
2018-09-09T07:34:27.988Z,17.73
2018-09-09T07:36:56.371Z,17.79
2018-09-09T07:39:24.888Z,17.90
2018-09-09T07:41:53.446Z,18.01
2018-09-09T07:44:22.306Z,18.08
2018-09-09T07:46:50.724Z,18.14
2018-09-09T07:49:19.154Z,18.21
2018-09-09T07:51:47.711Z,18.26
2018-09-09T07:54:16.119Z,18.28
2018-09-09T07:56:44.536Z,18.27
2018-09-09T07:59:13.060Z,18.32
2018-09-09T08:01:41.576Z,18.38
2018-09-09T08:04:10.136Z,18.45
2018-09-09T08:06:38.476Z,18.54
2018-09-09T08:09:09.324Z,18.64
2018-09-09T08:11:38.848Z,18.75
2018-09-09T08:14:08.863Z,18.84
2018-09-09T08:16:37.224Z,18.92
2018-09-09T08:19:05.932Z,18.96
2018-09-09T08:21:34.864Z,18.96
2018-09-09T08:24:03.463Z,19.02
2018-09-09T08:26:31.924Z,19.10
2018-09-09T08:29:00.451Z,19.18
2018-09-09T08:31:28.842Z,19.23
2018-09-09T08:33:57.317Z,19.31
2018-09-09T08:36:25.803Z,19.36
2018-09-09T08:38:54.286Z,19.43
2018-09-09T08:41:22.744Z,19.52
2018-09-09T08:43:51.147Z,19.60
2018-09-09T08:46:19.603Z,19.64
2018-09-09T08:48:48.187Z,19.70
2018-09-09T08:51:16.507Z,19.78
2018-09-09T08:53:44.911Z,19.85
2018-09-09T08:56:13.303Z,19.94
2018-09-09T08:58:41.767Z,20.03
2018-09-09T09:01:10.119Z,20.12
2018-09-09T09:03:38.629Z,20.18
2018-09-09T09:06:07.107Z,20.29
2018-09-09T09:08:35.468Z,20.45
2018-09-09T09:11:03.949Z,20.57
2018-09-09T09:13:32.283Z,20.63
2018-09-09T09:16:00.747Z,20.72
2018-09-09T09:18:29.120Z,20.81
2018-09-09T09:20:57.500Z,20.85
2018-09-09T09:23:25.973Z,20.94
2018-09-09T09:25:55.057Z,21.01
2018-09-09T09:28:24.107Z,21.07
2018-09-09T09:30:53.403Z,21.13
2018-09-09T09:33:22.022Z,21.20
2018-09-09T09:35:51.691Z,21.22
2018-09-09T09:38:21.398Z,21.30
2018-09-09T09:40:50.327Z,21.39
2018-09-09T09:43:25.473Z,21.49
2018-09-09T09:45:54.151Z,21.59
2018-09-09T09:48:22.500Z,21.70
2018-09-09T09:50:50.908Z,21.80
2018-09-09T09:53:19.461Z,21.90
2018-09-09T09:55:47.772Z,21.97
2018-09-09T09:58:16.151Z,22.05
2018-09-09T10:00:49.980Z,22.11
2018-09-09T10:03:18.437Z,22.20
2018-09-09T10:05:46.854Z,22.28
2018-09-09T10:08:15.486Z,22.36
2018-09-09T10:10:43.876Z,22.43
2018-09-09T10:13:12.269Z,22.55
2018-09-09T10:15:40.682Z,22.63
2018-09-09T10:18:09.136Z,22.66
2018-09-09T10:20:37.507Z,22.77
2018-09-09T10:23:06.057Z,22.88
2018-09-09T10:25:34.450Z,22.98
2018-09-09T10:28:02.953Z,23.05
2018-09-09T10:30:31.430Z,23.16
2018-09-09T10:32:59.832Z,23.23
2018-09-09T10:35:28.180Z,23.31
2018-09-09T10:37:56.593Z,23.38
2018-09-09T10:40:25.060Z,23.41
2018-09-09T10:42:53.481Z,23.43
2018-09-09T10:45:21.961Z,23.44
2018-09-09T10:47:50.324Z,23.53
2018-09-09T10:50:18.823Z,23.58
2018-09-09T10:52:47.435Z,23.74
2018-09-09T10:55:16.604Z,23.86
2018-09-09T10:57:45.183Z,23.91
2018-09-09T11:00:13.664Z,23.93
2018-09-09T11:02:42.156Z,24.01
2018-09-09T11:05:10.517Z,24.10
2018-09-09T11:07:38.991Z,24.13
2018-09-09T11:10:07.383Z,24.13
2018-09-09T11:12:35.890Z,24.11
2018-09-09T11:15:04.447Z,24.16
2018-09-09T11:17:33.811Z,24.25
2018-09-09T11:20:02.195Z,24.35
2018-09-09T11:22:30.575Z,24.43
2018-09-09T11:24:59.895Z,24.50
2018-09-09T11:27:28.335Z,24.56
2018-09-09T11:29:56.782Z,24.64
2018-09-09T11:32:25.120Z,24.77
2018-09-09T11:34:53.521Z,24.86
2018-09-09T11:37:22.001Z,24.92
2018-09-09T11:39:50.436Z,24.96
2018-09-09T11:42:18.773Z,24.99
2018-09-09T11:44:47.292Z,25.05
2018-09-09T11:47:15.656Z,25.08
2018-09-09T11:49:44.100Z,25.18
2018-09-09T11:52:12.620Z,25.30
2018-09-09T11:54:41.079Z,25.37
2018-09-09T11:57:09.538Z,25.50
2018-09-09T11:59:38.142Z,25.47
2018-09-09T12:02:06.707Z,25.55
2018-09-09T12:04:35.027Z,25.71
2018-09-09T12:07:03.672Z,25.83
2018-09-09T12:09:32.256Z,25.92
2018-09-09T12:12:00.876Z,26.10
2018-09-09T12:14:29.314Z,26.20
2018-09-09T12:16:57.805Z,26.31
2018-09-09T12:19:26.177Z,26.36
2018-09-09T12:21:54.719Z,26.41
2018-09-09T12:24:23.231Z,26.52
2018-09-09T12:26:52.595Z,26.56
2018-09-09T12:29:21.304Z,26.63
2018-09-09T12:31:49.717Z,26.69
2018-09-09T12:34:18.190Z,26.74
2018-09-09T12:36:46.656Z,26.81
2018-09-09T12:39:15.080Z,26.87
2018-09-09T12:41:43.460Z,26.96
2018-09-09T12:44:17.268Z,27.05
2018-09-09T12:46:51.049Z,27.10
2018-09-09T12:49:19.566Z,27.18
2018-09-09T12:51:48.002Z,27.08
2018-09-09T12:54:16.357Z,27.12
2018-09-09T12:56:44.918Z,27.15
2018-09-09T12:59:13.240Z,27.22
2018-09-09T13:01:41.648Z,27.28
2018-09-09T13:04:10.200Z,27.40
2018-09-09T13:06:38.640Z,27.40
2018-09-09T13:09:08.676Z,27.39
2018-09-09T13:11:37.215Z,27.42
2018-09-09T13:14:05.602Z,27.43
2018-09-09T13:16:33.971Z,27.47
2018-09-09T13:19:02.655Z,27.50
2018-09-09T13:21:31.060Z,27.54
2018-09-09T13:23:59.663Z,27.46
2018-09-09T13:26:28.213Z,27.40
2018-09-09T13:28:56.663Z,27.42
2018-09-09T13:31:25.057Z,27.49
2018-09-09T13:33:53.502Z,27.58
2018-09-09T13:36:21.953Z,27.68
2018-09-09T13:38:50.564Z,27.75
2018-09-09T13:41:19.129Z,27.81
2018-09-09T13:43:47.601Z,27.89
2018-09-09T13:46:16.129Z,27.92
2018-09-09T13:48:44.560Z,27.95
2018-09-09T13:51:12.943Z,27.97
2018-09-09T13:53:41.418Z,27.98
2018-09-09T13:56:10.016Z,28.05
2018-09-09T13:58:38.353Z,28.07
2018-09-09T14:01:06.312Z,28.06
2018-09-09T14:03:35.091Z,28.01
2018-09-09T14:06:03.503Z,28.00
2018-09-09T14:08:31.838Z,27.96
2018-09-09T14:11:00.302Z,27.93
2018-09-09T14:13:28.723Z,27.92
2018-09-09T14:15:57.109Z,27.96
2018-09-09T14:18:26.544Z,28.02
2018-09-09T14:20:54.895Z,28.03
2018-09-09T14:23:23.259Z,27.92
2018-09-09T14:25:51.623Z,28.00
2018-09-09T14:28:20.019Z,27.91
2018-09-09T14:30:48.361Z,27.82
2018-09-09T14:33:16.781Z,27.74
2018-09-09T14:35:45.115Z,27.72
2018-09-09T14:38:13.535Z,27.76
2018-09-09T14:40:41.911Z,27.79
2018-09-09T14:43:10.362Z,27.80
2018-09-09T14:45:38.981Z,27.81
2018-09-09T14:48:07.551Z,27.79
2018-09-09T14:50:35.913Z,27.77
2018-09-09T14:53:04.392Z,27.72
2018-09-09T14:55:32.731Z,27.73
2018-09-09T14:58:01.188Z,27.77
2018-09-09T15:00:29.603Z,27.81
2018-09-09T15:02:58.200Z,27.81
2018-09-09T15:05:26.635Z,27.80
2018-09-09T15:07:55.253Z,27.79
2018-09-09T15:10:23.877Z,27.82
2018-09-09T15:12:52.211Z,27.77
2018-09-09T15:15:20.553Z,27.87
2018-09-09T15:17:48.944Z,27.85
2018-09-09T15:20:17.387Z,27.84
2018-09-09T15:22:45.802Z,27.84
2018-09-09T15:25:14.170Z,27.84
2018-09-09T15:27:42.735Z,27.83
2018-09-09T15:30:12.031Z,27.75
2018-09-09T15:32:40.385Z,27.77
2018-09-09T15:35:08.853Z,27.85
2018-09-09T15:37:37.336Z,27.82
2018-09-09T15:40:05.874Z,27.83
2018-09-09T15:42:34.231Z,27.83
2018-09-09T15:45:02.614Z,27.80
2018-09-09T15:47:31.189Z,27.73
2018-09-09T15:49:59.587Z,27.63
2018-09-09T15:52:27.965Z,27.58
2018-09-09T15:54:56.690Z,27.49
2018-09-09T15:57:25.112Z,27.39
2018-09-09T15:59:53.495Z,27.30
2018-09-09T16:02:21.892Z,27.27
2018-09-09T16:04:50.263Z,27.22
2018-09-09T16:07:18.649Z,27.10
2018-09-09T16:09:47.225Z,26.99
2018-09-09T16:12:15.618Z,26.88
2018-09-09T16:14:44.071Z,26.80
2018-09-09T16:17:12.502Z,26.78
2018-09-09T16:19:40.857Z,26.76
2018-09-09T16:22:09.326Z,26.75
2018-09-09T16:24:37.861Z,26.73
2018-09-09T16:27:07.052Z,26.66
2018-09-09T16:29:35.469Z,26.63
2018-09-09T16:32:04.079Z,26.60
2018-09-09T16:34:32.436Z,26.52
2018-09-09T16:37:00.875Z,26.44
2018-09-09T16:39:29.381Z,26.36
2018-09-09T16:41:57.811Z,26.28
2018-09-09T16:44:26.225Z,26.20
2018-09-09T16:46:54.687Z,26.14
2018-09-09T16:49:23.222Z,26.07
2018-09-09T16:51:51.891Z,26.00
2018-09-09T16:54:20.271Z,25.94
2018-09-09T16:56:48.663Z,25.85
2018-09-09T16:59:17.034Z,25.76
2018-09-09T17:01:45.481Z,25.64
2018-09-09T17:04:13.827Z,25.58
2018-09-09T17:06:42.181Z,25.51
2018-09-09T17:09:11.571Z,25.32
2018-09-09T17:11:40.747Z,25.13
2018-09-09T17:14:09.366Z,25.09
2018-09-09T17:16:38.035Z,25.04
2018-09-09T17:19:06.424Z,25.01
2018-09-09T17:21:34.835Z,24.95
2018-09-09T17:24:03.227Z,24.87
2018-09-09T17:26:31.785Z,24.80
2018-09-09T17:29:00.171Z,24.75
2018-09-09T17:31:28.561Z,24.65
2018-09-09T17:33:56.925Z,24.42
2018-09-09T17:36:25.381Z,24.12
2018-09-09T17:38:53.799Z,23.83
2018-09-09T17:41:22.137Z,23.67
2018-09-09T17:43:50.523Z,23.58
2018-09-09T17:46:18.920Z,23.49
2018-09-09T17:48:47.371Z,23.42
2018-09-09T17:51:15.765Z,23.33
2018-09-09T17:53:44.192Z,23.31
2018-09-09T17:56:12.531Z,23.31
2018-09-09T17:58:40.900Z,23.27
2018-09-09T18:01:09.510Z,23.26
2018-09-09T18:03:39.092Z,23.28
2018-09-09T18:06:07.455Z,23.24
2018-09-09T18:08:35.823Z,23.12
2018-09-09T18:11:04.256Z,23.00
2018-09-09T18:13:32.580Z,22.88
2018-09-09T18:16:00.973Z,22.74
2018-09-09T18:18:29.327Z,22.64
2018-09-09T18:20:57.747Z,22.58
2018-09-09T18:23:26.081Z,22.53
2018-09-09T18:25:54.427Z,22.45
2018-09-09T18:28:22.920Z,22.44
2018-09-09T18:30:51.751Z,22.42
2018-09-09T18:33:20.144Z,22.36
2018-09-09T18:35:48.500Z,22.33
2018-09-09T18:38:17.060Z,22.30
2018-09-09T18:40:45.480Z,22.24
2018-09-09T18:43:13.864Z,22.22
2018-09-09T18:45:42.276Z,22.25
2018-09-09T18:48:10.736Z,22.23
2018-09-09T18:50:39.207Z,22.20
2018-09-09T18:53:07.724Z,22.21
2018-09-09T18:55:36.224Z,22.17
2018-09-09T18:58:04.644Z,22.11
2018-09-09T19:00:33.156Z,22.02
2018-09-09T19:03:01.488Z,21.90
2018-09-09T19:05:29.930Z,21.86
2018-09-09T19:07:58.642Z,21.88
2018-09-09T19:10:27.037Z,21.91
2018-09-09T19:12:55.626Z,21.91
2018-09-09T19:15:24.201Z,21.92
2018-09-09T19:17:52.750Z,21.89
2018-09-09T19:20:21.117Z,21.76
2018-09-09T19:22:49.582Z,21.66
2018-09-09T19:25:18.023Z,21.68
2018-09-09T19:27:46.400Z,21.77
2018-09-09T19:30:14.968Z,21.81
2018-09-09T19:32:43.348Z,21.78
2018-09-09T19:35:11.741Z,21.70
2018-09-09T19:37:40.317Z,21.60
2018-09-09T19:40:08.696Z,21.44
2018-09-09T19:42:38.028Z,21.31
2018-09-09T19:45:07.352Z,21.27
2018-09-09T19:47:35.804Z,21.24
2018-09-09T19:50:05.152Z,21.13
2018-09-09T19:52:33.956Z,20.90
2018-09-09T19:55:02.382Z,20.79
2018-09-09T19:57:31.365Z,20.68
2018-09-09T19:59:59.815Z,20.59
2018-09-09T20:02:28.220Z,20.43
2018-09-09T20:04:56.570Z,20.31
2018-09-09T20:07:25.075Z,20.25
2018-09-09T20:09:53.549Z,20.20
2018-09-09T20:12:22.048Z,20.16
2018-09-09T20:14:50.450Z,20.20
2018-09-09T20:17:18.873Z,20.20
2018-09-09T20:19:47.257Z,20.16
2018-09-09T20:22:15.828Z,20.10
2018-09-09T20:24:44.197Z,20.08
2018-09-09T20:27:12.604Z,20.08
2018-09-09T20:29:41.491Z,20.07
2018-09-09T20:32:09.822Z,19.98
2018-09-09T20:34:38.181Z,19.94
2018-09-09T20:37:06.720Z,19.94
2018-09-09T20:39:35.346Z,19.95
2018-09-09T20:42:03.697Z,19.94
2018-09-09T20:44:32.099Z,19.97
2018-09-09T20:47:00.535Z,19.96
2018-09-09T20:49:28.961Z,20.03
2018-09-09T20:51:57.315Z,20.09
2018-09-09T20:54:25.728Z,20.13
2018-09-09T20:56:54.216Z,20.09
2018-09-09T20:59:22.666Z,20.00
2018-09-09T21:01:51.224Z,19.95
2018-09-09T21:04:19.820Z,19.96
2018-09-09T21:06:48.226Z,19.93
2018-09-09T21:09:16.676Z,19.84
2018-09-09T21:11:45.071Z,19.82
2018-09-09T21:14:13.471Z,19.78
2018-09-09T21:16:41.925Z,19.78
2018-09-09T21:19:10.235Z,19.78
2018-09-09T21:21:38.707Z,19.80
2018-09-09T21:24:07.260Z,19.83
2018-09-09T21:26:35.632Z,19.85
2018-09-09T21:29:04.065Z,19.82
2018-09-09T21:31:32.480Z,19.78
2018-09-09T21:34:00.859Z,19.69
2018-09-09T21:36:29.443Z,19.65
2018-09-09T21:38:57.776Z,19.58
2018-09-09T21:41:26.119Z,19.46
2018-09-09T21:43:54.531Z,19.38
2018-09-09T21:46:22.867Z,19.36
2018-09-09T21:48:51.304Z,19.30
2018-09-09T21:51:19.785Z,19.27
2018-09-09T21:53:48.116Z,19.24
2018-09-09T21:56:16.476Z,19.19
2018-09-09T21:58:44.844Z,19.17
2018-09-09T22:01:18.519Z,19.13
2018-09-09T22:03:46.907Z,19.05
2018-09-09T22:06:15.276Z,19.03
2018-09-09T22:08:43.696Z,18.94
2018-09-09T22:11:12.100Z,18.94
2018-09-09T22:13:40.603Z,18.97
2018-09-09T22:16:09.127Z,18.94
2018-09-09T22:18:37.545Z,18.92
2018-09-09T22:21:05.883Z,18.91
2018-09-09T22:23:34.284Z,18.89
2018-09-09T22:26:02.670Z,18.85
2018-09-09T22:28:31.062Z,18.83
2018-09-09T22:30:59.517Z,18.80
2018-09-09T22:33:28.072Z,18.73
2018-09-09T22:35:56.482Z,18.66
2018-09-09T22:38:24.836Z,18.54
2018-09-09T22:40:53.342Z,18.47
2018-09-09T22:43:22.279Z,18.41
2018-09-09T22:45:51.817Z,18.33
2018-09-09T22:48:20.914Z,18.29
2018-09-09T22:50:49.284Z,18.30
2018-09-09T22:53:17.620Z,18.34
2018-09-09T22:55:46.059Z,18.37
2018-09-09T22:58:14.451Z,18.39
2018-09-09T23:00:42.976Z,18.38
2018-09-09T23:03:11.346Z,18.39
2018-09-09T23:05:39.746Z,18.40
2018-09-09T23:08:08.158Z,18.43
2018-09-09T23:10:36.692Z,18.46
2018-09-09T23:13:05.353Z,18.34
2018-09-09T23:15:33.686Z,18.18
2018-09-09T23:18:02.072Z,18.00
2018-09-09T23:20:30.454Z,18.05
2018-09-09T23:22:58.834Z,18.13
2018-09-09T23:25:27.201Z,18.18
2018-09-09T23:27:55.537Z,18.20
2018-09-09T23:30:23.887Z,18.15
2018-09-09T23:32:52.294Z,18.04
2018-09-09T23:35:20.615Z,17.97
2018-09-09T23:37:48.962Z,17.92
2018-09-09T23:40:17.389Z,17.90
2018-09-09T23:42:45.744Z,17.96
2018-09-09T23:45:14.131Z,18.06
2018-09-09T23:47:42.516Z,18.03
2018-09-09T23:50:10.894Z,17.94
2018-09-09T23:52:39.259Z,17.97
2018-09-09T23:55:08.155Z,17.95
2018-09-09T23:57:36.544Z,17.86
